Otagawa — JD3046 — position and weather

sailwx.info

Track history (hours):
 
Tides and Currents Weather Stations Pressure Air Temp Water Temp Dewpoint Dewpoint Depression Visibility Wind Speed Wind Dir Waves Ship Positions

Otagawa

Last reported at 2018-Apr-19 00:13 UTC. Time now 2018-Apr-19 23:23 UTC.
Position N 34°58' E 140°07'.

Length 70 m; draft 4.5 m.

Type: Cargo ship. MMSI: 431001328.

Date/timePositionNaut miles runAvg speedWind from/ knotsBaromVisibWave heightAir tempDewpointWater temp
2018-Apr-19 00:13N 34°58' E 140°07'410.3
2018-Apr-18 23:52N 34°56' E 140°03'12 9.7
2018-Apr-18 22:40N 34°52' E 139°50'210.3
2018-Apr-18 22:30N 34°53' E 139°48'6 9.8
2018-Apr-18 21:51N 34°58' E 139°44'3 8.2
2018-Apr-18 21:30N 35°01' E 139°44'5 9.9
2018-Apr-18 21:00N 35°06' E 139°44'510.5
2018-Apr-18 20:30N 35°11' E 139°45'5 9.5
2018-Apr-18 20:00N 35°16' E 139°46'510.0
2018-Apr-18 19:30N 35°20' E 139°43'5 9.7
2018-Apr-18 19:01N 35°25' E 139°43'3 5.8
2018-Apr-18 18:31N 35°28' E 139°42'0 0.0
2018-Apr-18 18:00N 35°28' E 139°42'0 0.0
2018-Apr-18 17:30N 35°28' E 139°42'0 0.0
2018-Apr-18 17:00N 35°28' E 139°42'0 0.0
2018-Apr-18 16:30N 35°28' E 139°42'0 0.0
2018-Apr-18 16:00N 35°28' E 139°42'0 0.0
2018-Apr-18 15:30N 35°28' E 139°42'0 0.0
2018-Apr-18 15:00N 35°28' E 139°42'0 0.0
2018-Apr-18 14:30N 35°28' E 139°42'1 1.2
2018-Apr-18 14:01N 35°27' E 139°42'1 1.5
2018-Apr-18 13:30N 35°27' E 139°43'0 0.0
2018-Apr-18 13:00N 35°27' E 139°43'0 0.0
2018-Apr-18 12:30N 35°27' E 139°43'0 0.0
2018-Apr-18 12:00N 35°27' E 139°43'0 0.0
2018-Apr-18 11:30N 35°27' E 139°43'0 0.1
2018-Apr-18 11:00N 35°27' E 139°43'0 0.0
2018-Apr-18 10:30N 35°27' E 139°43'0 0.0
2018-Apr-18 10:00N 35°27' E 139°43'0 0.0
2018-Apr-18 09:30N 35°27' E 139°43'0 0.1
2018-Apr-18 09:00N 35°27' E 139°43'3 5.9
2018-Apr-18 08:30N 35°24' E 139°42'1 1.3
2018-Apr-18 07:58N 35°24' E 139°41'0 0.0
2018-Apr-18 07:28N 35°24' E 139°41'0 0.0
2018-Apr-18 06:58N 35°24' E 139°41'0 0.0
2018-Apr-18 06:25N 35°24' E 139°41'0 0.0
2018-Apr-18 05:58N 35°24' E 139°41'0 0.0
2018-Apr-18 05:28N 35°24' E 139°41'0 0.0
2018-Apr-18 04:58N 35°24' E 139°41'0 0.0
2018-Apr-18 04:26N 35°24' E 139°41'1 2.7
2018-Apr-18 04:01N 35°24' E 139°40'0 0.4
2018-Apr-18 03:29N 35°23' E 139°40'0 0.0
2018-Apr-18 02:59N 35°23' E 139°40'0 0.0
2018-Apr-18 02:29N 35°23' E 139°40'0 0.0
2018-Apr-18 01:59N 35°23' E 139°40'0 0.0
2018-Apr-18 01:29N 35°23' E 139°40'0 0.0
2018-Apr-18 00:59N 35°23' E 139°40'0 0.1
2018-Apr-18 00:29N 35°23' E 139°39'0 0.0
2018-Apr-17 23:59N 35°23' E 139°39'0 0.1
2018-Apr-17 23:29N 35°23' E 139°40'0 0.1
2018-Apr-17 22:59N 35°23' E 139°39'0 0.1
2018-Apr-17 22:29N 35°23' E 139°40'0 0.0
2018-Apr-17 21:59N 35°23' E 139°40'0 0.0
2018-Apr-17 21:29N 35°23' E 139°40'0 0.0
2018-Apr-17 20:59N 35°23' E 139°40'0 0.0
2018-Apr-17 20:29N 35°23' E 139°40'0 0.1
2018-Apr-17 19:59N 35°23' E 139°39'0 0.0
2018-Apr-17 19:29N 35°23' E 139°39'0 0.0
2018-Apr-17 18:59N 35°23' E 139°39'0 0.0
2018-Apr-17 18:29N 35°23' E 139°39'0 0.0
2018-Apr-17 17:59N 35°23' E 139°39'0 0.0
2018-Apr-17 17:29N 35°23' E 139°39'0 0.1
2018-Apr-17 16:59N 35°23' E 139°40'0 0.0
2018-Apr-17 16:29N 35°23' E 139°40'0 0.0
2018-Apr-17 15:59N 35°23' E 139°40'0 0.0
2018-Apr-17 15:29N 35°23' E 139°40'0 0.0
2018-Apr-17 14:59N 35°23' E 139°40'0 0.0
2018-Apr-17 14:29N 35°23' E 139°40'0 0.0
2018-Apr-17 13:59N 35°23' E 139°40'0 0.0
2018-Apr-17 13:29N 35°23' E 139°40'0 0.0
2018-Apr-17 12:59N 35°23' E 139°40'0 0.0
2018-Apr-17 12:29N 35°23' E 139°40'0 0.0
2018-Apr-17 11:56N 35°23' E 139°40'0 0.0
2018-Apr-17 11:29N 35°23' E 139°40'3 5.9
2018-Apr-17 11:00N 35°21' E 139°41'5 9.6
2018-Apr-17 10:30N 35°17' E 139°45'5 9.6
2018-Apr-17 10:00N 35°13' E 139°47'510.1
2018-Apr-17 09:30N 35°08' E 139°46'510.2
2018-Apr-17 09:00N 35°03' E 139°45'710.9
2018-Apr-17 08:20N 34°55' E 139°46'10 9.3
2018-Apr-17 07:13N 34°54' E 139°59'2 9.8
2018-Apr-17 06:59N 34°56' E 140°01'5 9.9
2018-Apr-17 06:30N 34°58' E 140°06'510.1
2018-Apr-17 06:00N 35°01' E 140°11'  
2018-Apr-14 17:33N 40°45' E 141°31'2 9.9
2018-Apr-14 17:18N 40°48' E 141°31'310.1
2018-Apr-14 17:00N 40°51' E 141°31'12 9.8
2018-Apr-14 15:47N 41°03' E 141°31'4 9.4
2018-Apr-14 15:24N 41°07' E 141°31'4 9.3
2018-Apr-14 14:59N 41°10' E 141°31'4 9.2
2018-Apr-14 14:30N 41°15' E 141°31'10 9.7
2018-Apr-14 13:31N 41°24' E 141°32'010.4
2018-Apr-14 13:30N 41°25' E 141°32'610.5
2018-Apr-14 12:54N 41°31' E 141°32'410.2
2018-Apr-14 12:30N 41°35' E 141°31'5 8.7
2018-Apr-14 11:58N 41°39' E 141°30'  
2018-Apr-11 23:49N 35°01' E 140°11'310.5
2018-Apr-11 23:30N 34°59' E 140°08'19 8.3
2018-Apr-11 21:12N 34°57' E 139°44'2 9.1
2018-Apr-11 21:00N 34°59' E 139°44'4 8.6
2018-Apr-11 20:30N 35°03' E 139°44'4 8.1
2018-Apr-11 20:00N 35°07' E 139°45'4 8.2
2018-Apr-11 19:30N 35°11' E 139°46'4 8.9
2018-Apr-11 19:00N 35°16' E 139°46'5 9.7
2018-Apr-11 18:30N 35°20' E 139°43'4 8.4
2018-Apr-11 18:01N 35°23' E 139°40'0 0.2
2018-Apr-11 17:28N 35°23' E 139°40'0 0.0
2018-Apr-11 16:58N 35°23' E 139°40'0 0.1
2018-Apr-11 16:28N 35°23' E 139°40'0 0.1
2018-Apr-11 15:58N 35°23' E 139°40'0 0.0
2018-Apr-11 15:28N 35°23' E 139°40'0 0.0
2018-Apr-11 14:58N 35°23' E 139°40'0 0.0
2018-Apr-11 14:29N 35°23' E 139°40'1 2.6
2018-Apr-11 14:00N 35°24' E 139°41'0 0.0
2018-Apr-11 13:30N 35°24' E 139°41'0 0.0
2018-Apr-11 13:00N 35°24' E 139°41'0 0.0
2018-Apr-11 12:27N 35°24' E 139°41'0 0.0
2018-Apr-11 12:00N 35°24' E 139°41'0 0.0
2018-Apr-11 11:30N 35°24' E 139°41'0 0.0
2018-Apr-11 11:00N 35°24' E 139°41'0 0.4
2018-Apr-11 10:30N 35°24' E 139°41'1 1.2
2018-Apr-11 10:00N 35°24' E 139°41'2 3.7
2018-Apr-11 09:30N 35°25' E 139°42'0 0.2
2018-Apr-11 09:00N 35°26' E 139°42'0 0.0
2018-Apr-11 08:29N 35°26' E 139°42'0 0.0
2018-Apr-11 07:59N 35°26' E 139°42'0 0.0
2018-Apr-11 07:29N 35°26' E 139°42'0 0.0
2018-Apr-11 06:56N 35°26' E 139°42'0 0.1
2018-Apr-11 06:29N 35°26' E 139°42'0 0.0
2018-Apr-11 05:59N 35°26' E 139°42'0 0.0
2018-Apr-11 05:29N 35°26' E 139°42'0 0.1
2018-Apr-11 04:59N 35°26' E 139°42'0 0.1
2018-Apr-11 04:29N 35°26' E 139°42'0 0.1
2018-Apr-11 03:59N 35°26' E 139°42'0 0.0
2018-Apr-11 03:26N 35°26' E 139°42'0 0.1
2018-Apr-11 02:56N 35°26' E 139°42'0 0.1
2018-Apr-11 02:29N 35°25' E 139°42'0 0.0
2018-Apr-11 01:59N 35°25' E 139°42'0 0.0
2018-Apr-11 01:29N 35°25' E 139°42'0 0.0
2018-Apr-11 00:59N 35°25' E 139°42'0 0.0
2018-Apr-11 00:29N 35°25' E 139°42'0 0.0
2018-Apr-10 23:59N 35°25' E 139°42'0 0.0
2018-Apr-10 23:29N 35°25' E 139°42'0 0.1
2018-Apr-10 22:59N 35°25' E 139°42'0 0.0
2018-Apr-10 22:29N 35°25' E 139°42'0 0.0
2018-Apr-10 21:59N 35°25' E 139°42'0 0.0
2018-Apr-10 21:29N 35°25' E 139°42'0 0.0
2018-Apr-10 20:59N 35°25' E 139°42'0 0.1
2018-Apr-10 20:29N 35°25' E 139°42'0 0.1
2018-Apr-10 19:59N 35°25' E 139°42'0 0.0
2018-Apr-10 19:29N 35°25' E 139°42'0 0.0
2018-Apr-10 18:59N 35°25' E 139°42'0 0.0
2018-Apr-10 18:29N 35°25' E 139°42'0 0.0
2018-Apr-10 17:59N 35°25' E 139°42'0 0.0
2018-Apr-10 17:29N 35°25' E 139°42'0 0.0
2018-Apr-10 16:59N 35°25' E 139°42'0 0.0
2018-Apr-10 16:29N 35°25' E 139°42'0 0.1
2018-Apr-10 15:59N 35°25' E 139°42'0 0.0
2018-Apr-10 15:26N 35°25' E 139°42'0 0.0
2018-Apr-10 14:59N 35°25' E 139°42'0 0.0
2018-Apr-10 14:29N 35°25' E 139°42'0 0.0
2018-Apr-10 13:59N 35°25' E 139°42'0 0.1
2018-Apr-10 13:29N 35°25' E 139°42'0 0.1
2018-Apr-10 12:59N 35°25' E 139°42'0 0.2
2018-Apr-10 12:29N 35°25' E 139°42'0 0.0
2018-Apr-10 11:59N 35°25' E 139°42'1 1.5
2018-Apr-10 11:31N 35°26' E 139°42'2 3.2
2018-Apr-10 11:00N 35°28' E 139°42'0 0.0
2018-Apr-10 10:30N 35°28' E 139°42'0 0.0
2018-Apr-10 10:00N 35°28' E 139°42'0 0.0
2018-Apr-10 09:30N 35°28' E 139°42'0 0.0
2018-Apr-10 09:00N 35°28' E 139°42'0 0.0
2018-Apr-10 08:30N 35°28' E 139°42'0 0.0
2018-Apr-10 08:00N 35°28' E 139°42'0 0.0
2018-Apr-10 07:30N 35°28' E 139°42'0 0.0
2018-Apr-10 07:00N 35°28' E 139°42'0 0.0
2018-Apr-10 06:30N 35°28' E 139°42'0 0.0
2018-Apr-10 06:00N 35°28' E 139°42'0 0.0
2018-Apr-10 05:30N 35°28' E 139°42'0 0.0
2018-Apr-10 05:00N 35°28' E 139°42'0 0.0
2018-Apr-10 04:30N 35°28' E 139°42'0 0.0
2018-Apr-10 04:00N 35°28' E 139°42'0 0.0
2018-Apr-10 03:30N 35°28' E 139°42'0 0.0
2018-Apr-10 03:00N 35°28' E 139°42'0 0.0
2018-Apr-10 02:30N 35°28' E 139°42'0 0.0
2018-Apr-10 02:00N 35°28' E 139°42'1 1.1
2018-Apr-10 01:30N 35°28' E 139°43'4 8.6
2018-Apr-10 01:00N 35°25' E 139°46'5 9.9
2018-Apr-10 00:30N 35°20' E 139°44'5 9.3
2018-Apr-10 00:01N 35°16' E 139°47'5 9.5
2018-Apr-09 23:30N 35°11' E 139°46'5 9.7
2018-Apr-09 23:00N 35°06' E 139°45'13 9.2
2018-Apr-09 21:36N 34°53' E 139°47'1 9.5
2018-Apr-09 21:30N 34°53' E 139°48'910.4
2018-Apr-09 20:37N 34°54' E 139°59'210.6
2018-Apr-09 20:27N 34°55' E 140°01'510.7
2018-Apr-09 19:58N 34°58' E 140°06'511.2
2018-Apr-09 19:30N 35°01' E 140°11'611.0
2018-Apr-09 18:56N 35°04' E 140°17'  
Track history (hours):
 
Tides and Currents Weather Stations Pressure Air Temp Water Temp Dewpoint Dewpoint Depression Visibility Wind Speed Wind Dir Waves Ship Positions

Otagawa

Last reported at 2018-Apr-19 00:13 UTC. Time now 2018-Apr-19 23:23 UTC.
Position N 34°58' E 140°07'.

Length 70 m; draft 4.5 m.

Type: Cargo ship. MMSI: 431001328.

Date/timePositionNaut miles runAvg speedWind from/ knotsBaromVisibWave heightAir tempDewpointWater temp
2018-Apr-19 00:13N 34°58' E 140°07'410.3
2018-Apr-18 23:52N 34°56' E 140°03'12 9.7
2018-Apr-18 22:40N 34°52' E 139°50'210.3
2018-Apr-18 22:30N 34°53' E 139°48'6 9.8
2018-Apr-18 21:51N 34°58' E 139°44'3 8.2
2018-Apr-18 21:30N 35°01' E 139°44'5 9.9
2018-Apr-18 21:00N 35°06' E 139°44'510.5
2018-Apr-18 20:30N 35°11' E 139°45'5 9.5
2018-Apr-18 20:00N 35°16' E 139°46'510.0
2018-Apr-18 19:30N 35°20' E 139°43'5 9.7
2018-Apr-18 19:01N 35°25' E 139°43'3 5.8
2018-Apr-18 18:31N 35°28' E 139°42'0 0.0
2018-Apr-18 18:00N 35°28' E 139°42'0 0.0
2018-Apr-18 17:30N 35°28' E 139°42'0 0.0
2018-Apr-18 17:00N 35°28' E 139°42'0 0.0
2018-Apr-18 16:30N 35°28' E 139°42'0 0.0
2018-Apr-18 16:00N 35°28' E 139°42'0 0.0
2018-Apr-18 15:30N 35°28' E 139°42'0 0.0
2018-Apr-18 15:00N 35°28' E 139°42'0 0.0
2018-Apr-18 14:30N 35°28' E 139°42'1 1.2
2018-Apr-18 14:01N 35°27' E 139°42'1 1.5
2018-Apr-18 13:30N 35°27' E 139°43'0 0.0
2018-Apr-18 13:00N 35°27' E 139°43'0 0.0
2018-Apr-18 12:30N 35°27' E 139°43'0 0.0
2018-Apr-18 12:00N 35°27' E 139°43'0 0.0
2018-Apr-18 11:30N 35°27' E 139°43'0 0.1
2018-Apr-18 11:00N 35°27' E 139°43'0 0.0
2018-Apr-18 10:30N 35°27' E 139°43'0 0.0
2018-Apr-18 10:00N 35°27' E 139°43'0 0.0
2018-Apr-18 09:30N 35°27' E 139°43'0 0.1
2018-Apr-18 09:00N 35°27' E 139°43'3 5.9
2018-Apr-18 08:30N 35°24' E 139°42'1 1.3
2018-Apr-18 07:58N 35°24' E 139°41'0 0.0
2018-Apr-18 07:28N 35°24' E 139°41'0 0.0
2018-Apr-18 06:58N 35°24' E 139°41'0 0.0
2018-Apr-18 06:25N 35°24' E 139°41'0 0.0
2018-Apr-18 05:58N 35°24' E 139°41'0 0.0
2018-Apr-18 05:28N 35°24' E 139°41'0 0.0
2018-Apr-18 04:58N 35°24' E 139°41'0 0.0
2018-Apr-18 04:26N 35°24' E 139°41'1 2.7
2018-Apr-18 04:01N 35°24' E 139°40'0 0.4
2018-Apr-18 03:29N 35°23' E 139°40'0 0.0
2018-Apr-18 02:59N 35°23' E 139°40'0 0.0
2018-Apr-18 02:29N 35°23' E 139°40'0 0.0
2018-Apr-18 01:59N 35°23' E 139°40'0 0.0
2018-Apr-18 01:29N 35°23' E 139°40'0 0.0
2018-Apr-18 00:59N 35°23' E 139°40'0 0.1
2018-Apr-18 00:29N 35°23' E 139°39'0 0.0
2018-Apr-17 23:59N 35°23' E 139°39'0 0.1
2018-Apr-17 23:29N 35°23' E 139°40'0 0.1
2018-Apr-17 22:59N 35°23' E 139°39'0 0.1
2018-Apr-17 22:29N 35°23' E 139°40'0 0.0
2018-Apr-17 21:59N 35°23' E 139°40'0 0.0
2018-Apr-17 21:29N 35°23' E 139°40'0 0.0
2018-Apr-17 20:59N 35°23' E 139°40'0 0.0
2018-Apr-17 20:29N 35°23' E 139°40'0 0.1
2018-Apr-17 19:59N 35°23' E 139°39'0 0.0
2018-Apr-17 19:29N 35°23' E 139°39'0 0.0
2018-Apr-17 18:59N 35°23' E 139°39'0 0.0
2018-Apr-17 18:29N 35°23' E 139°39'0 0.0
2018-Apr-17 17:59N 35°23' E 139°39'0 0.0
2018-Apr-17 17:29N 35°23' E 139°39'0 0.1
2018-Apr-17 16:59N 35°23' E 139°40'0 0.0
2018-Apr-17 16:29N 35°23' E 139°40'0 0.0
2018-Apr-17 15:59N 35°23' E 139°40'0 0.0
2018-Apr-17 15:29N 35°23' E 139°40'0 0.0
2018-Apr-17 14:59N 35°23' E 139°40'0 0.0
2018-Apr-17 14:29N 35°23' E 139°40'0 0.0
2018-Apr-17 13:59N 35°23' E 139°40'0 0.0
2018-Apr-17 13:29N 35°23' E 139°40'0 0.0
2018-Apr-17 12:59N 35°23' E 139°40'0 0.0
2018-Apr-17 12:29N 35°23' E 139°40'0 0.0
2018-Apr-17 11:56N 35°23' E 139°40'0 0.0
2018-Apr-17 11:29N 35°23' E 139°40'3 5.9
2018-Apr-17 11:00N 35°21' E 139°41'5 9.6
2018-Apr-17 10:30N 35°17' E 139°45'5 9.6
2018-Apr-17 10:00N 35°13' E 139°47'510.1
2018-Apr-17 09:30N 35°08' E 139°46'510.2
2018-Apr-17 09:00N 35°03' E 139°45'710.9
2018-Apr-17 08:20N 34°55' E 139°46'10 9.3
2018-Apr-17 07:13N 34°54' E 139°59'2 9.8
2018-Apr-17 06:59N 34°56' E 140°01'5 9.9
2018-Apr-17 06:30N 34°58' E 140°06'510.1
2018-Apr-17 06:00N 35°01' E 140°11'  
2018-Apr-14 17:33N 40°45' E 141°31'2 9.9
2018-Apr-14 17:18N 40°48' E 141°31'310.1
2018-Apr-14 17:00N 40°51' E 141°31'12 9.8
2018-Apr-14 15:47N 41°03' E 141°31'4 9.4
2018-Apr-14 15:24N 41°07' E 141°31'4 9.3
2018-Apr-14 14:59N 41°10' E 141°31'4 9.2
2018-Apr-14 14:30N 41°15' E 141°31'10 9.7
2018-Apr-14 13:31N 41°24' E 141°32'010.4
2018-Apr-14 13:30N 41°25' E 141°32'610.5
2018-Apr-14 12:54N 41°31' E 141°32'410.2
2018-Apr-14 12:30N 41°35' E 141°31'5 8.7
2018-Apr-14 11:58N 41°39' E 141°30'  
2018-Apr-11 23:49N 35°01' E 140°11'310.5
2018-Apr-11 23:30N 34°59' E 140°08'19 8.3
2018-Apr-11 21:12N 34°57' E 139°44'2 9.1
2018-Apr-11 21:00N 34°59' E 139°44'4 8.6
2018-Apr-11 20:30N 35°03' E 139°44'4 8.1
2018-Apr-11 20:00N 35°07' E 139°45'4 8.2
2018-Apr-11 19:30N 35°11' E 139°46'4 8.9
2018-Apr-11 19:00N 35°16' E 139°46'5 9.7
2018-Apr-11 18:30N 35°20' E 139°43'4 8.4
2018-Apr-11 18:01N 35°23' E 139°40'0 0.2
2018-Apr-11 17:28N 35°23' E 139°40'0 0.0
2018-Apr-11 16:58N 35°23' E 139°40'0 0.1
2018-Apr-11 16:28N 35°23' E 139°40'0 0.1
2018-Apr-11 15:58N 35°23' E 139°40'0 0.0
2018-Apr-11 15:28N 35°23' E 139°40'0 0.0
2018-Apr-11 14:58N 35°23' E 139°40'0 0.0
2018-Apr-11 14:29N 35°23' E 139°40'1 2.6
2018-Apr-11 14:00N 35°24' E 139°41'0 0.0
2018-Apr-11 13:30N 35°24' E 139°41'0 0.0
2018-Apr-11 13:00N 35°24' E 139°41'0 0.0
2018-Apr-11 12:27N 35°24' E 139°41'0 0.0
2018-Apr-11 12:00N 35°24' E 139°41'0 0.0
2018-Apr-11 11:30N 35°24' E 139°41'0 0.0
2018-Apr-11 11:00N 35°24' E 139°41'0 0.4
2018-Apr-11 10:30N 35°24' E 139°41'1 1.2
2018-Apr-11 10:00N 35°24' E 139°41'2 3.7
2018-Apr-11 09:30N 35°25' E 139°42'0 0.2
2018-Apr-11 09:00N 35°26' E 139°42'0 0.0
2018-Apr-11 08:29N 35°26' E 139°42'0 0.0
2018-Apr-11 07:59N 35°26' E 139°42'0 0.0
2018-Apr-11 07:29N 35°26' E 139°42'0 0.0
2018-Apr-11 06:56N 35°26' E 139°42'0 0.1
2018-Apr-11 06:29N 35°26' E 139°42'0 0.0
2018-Apr-11 05:59N 35°26' E 139°42'0 0.0
2018-Apr-11 05:29N 35°26' E 139°42'0 0.1
2018-Apr-11 04:59N 35°26' E 139°42'0 0.1
2018-Apr-11 04:29N 35°26' E 139°42'0 0.1
2018-Apr-11 03:59N 35°26' E 139°42'0 0.0
2018-Apr-11 03:26N 35°26' E 139°42'0 0.1
2018-Apr-11 02:56N 35°26' E 139°42'0 0.1
2018-Apr-11 02:29N 35°25' E 139°42'0 0.0
2018-Apr-11 01:59N 35°25' E 139°42'0 0.0
2018-Apr-11 01:29N 35°25' E 139°42'0 0.0
2018-Apr-11 00:59N 35°25' E 139°42'0 0.0
2018-Apr-11 00:29N 35°25' E 139°42'0 0.0
2018-Apr-10 23:59N 35°25' E 139°42'0 0.0
2018-Apr-10 23:29N 35°25' E 139°42'0 0.1
2018-Apr-10 22:59N 35°25' E 139°42'0 0.0
2018-Apr-10 22:29N 35°25' E 139°42'0 0.0
2018-Apr-10 21:59N 35°25' E 139°42'0 0.0
2018-Apr-10 21:29N 35°25' E 139°42'0 0.0
2018-Apr-10 20:59N 35°25' E 139°42'0 0.1
2018-Apr-10 20:29N 35°25' E 139°42'0 0.1
2018-Apr-10 19:59N 35°25' E 139°42'0 0.0
2018-Apr-10 19:29N 35°25' E 139°42'0 0.0
2018-Apr-10 18:59N 35°25' E 139°42'0 0.0
2018-Apr-10 18:29N 35°25' E 139°42'0 0.0
2018-Apr-10 17:59N 35°25' E 139°42'0 0.0
2018-Apr-10 17:29N 35°25' E 139°42'0 0.0
2018-Apr-10 16:59N 35°25' E 139°42'0 0.0
2018-Apr-10 16:29N 35°25' E 139°42'0 0.1
2018-Apr-10 15:59N 35°25' E 139°42'0 0.0
2018-Apr-10 15:26N 35°25' E 139°42'0 0.0
2018-Apr-10 14:59N 35°25' E 139°42'0 0.0
2018-Apr-10 14:29N 35°25' E 139°42'0 0.0
2018-Apr-10 13:59N 35°25' E 139°42'0 0.1
2018-Apr-10 13:29N 35°25' E 139°42'0 0.1
2018-Apr-10 12:59N 35°25' E 139°42'0 0.2
2018-Apr-10 12:29N 35°25' E 139°42'0 0.0
2018-Apr-10 11:59N 35°25' E 139°42'1 1.5
2018-Apr-10 11:31N 35°26' E 139°42'2 3.2
2018-Apr-10 11:00N 35°28' E 139°42'0 0.0
2018-Apr-10 10:30N 35°28' E 139°42'0 0.0
2018-Apr-10 10:00N 35°28' E 139°42'0 0.0
2018-Apr-10 09:30N 35°28' E 139°42'0 0.0
2018-Apr-10 09:00N 35°28' E 139°42'0 0.0
2018-Apr-10 08:30N 35°28' E 139°42'0 0.0
2018-Apr-10 08:00N 35°28' E 139°42'0 0.0
2018-Apr-10 07:30N 35°28' E 139°42'0 0.0
2018-Apr-10 07:00N 35°28' E 139°42'0 0.0
2018-Apr-10 06:30N 35°28' E 139°42'0 0.0
2018-Apr-10 06:00N 35°28' E 139°42'0 0.0
2018-Apr-10 05:30N 35°28' E 139°42'0 0.0
2018-Apr-10 05:00N 35°28' E 139°42'0 0.0
2018-Apr-10 04:30N 35°28' E 139°42'0 0.0
2018-Apr-10 04:00N 35°28' E 139°42'0 0.0
2018-Apr-10 03:30N 35°28' E 139°42'0 0.0
2018-Apr-10 03:00N 35°28' E 139°42'0 0.0
2018-Apr-10 02:30N 35°28' E 139°42'0 0.0
2018-Apr-10 02:00N 35°28' E 139°42'1 1.1
2018-Apr-10 01:30N 35°28' E 139°43'4 8.6
2018-Apr-10 01:00N 35°25' E 139°46'5 9.9
2018-Apr-10 00:30N 35°20' E 139°44'5 9.3
2018-Apr-10 00:01N 35°16' E 139°47'5 9.5
2018-Apr-09 23:30N 35°11' E 139°46'5 9.7
2018-Apr-09 23:00N 35°06' E 139°45'13 9.2
2018-Apr-09 21:36N 34°53' E 139°47'1 9.5
2018-Apr-09 21:30N 34°53' E 139°48'910.4
2018-Apr-09 20:37N 34°54' E 139°59'210.6
2018-Apr-09 20:27N 34°55' E 140°01'510.7
2018-Apr-09 19:58N 34°58' E 140°06'511.2
2018-Apr-09 19:30N 35°01' E 140°11'611.0
2018-Apr-09 18:56N 35°04' E 140°17'  

Dump ship's entire track history